Cortez Municipal Airport

Airport
ICAO code: 
KCEZ
Summary
ICAO Region: 
NAM
Territory: 
Location: 
Cortez, Colorado,
Elevation: 
5918 ft
Coordinates: 
Aerial View: 
37° 18' 15.075" N, 108° 37' 47.132" W
Airport CFIT: 
Altimeter Temperature Error Correction
Airport RE: 
Hot and High Operations
Airport WX: 
Mountain Waves
Metar
Observation
KCEZ 021553Z AUTO 07004KT 10SM CLR 02/M05 A3035 RMK AO2 SLP280 T00171050
Station
Cortez, Cortez-Montezuma County Airport
Date/Time
2021-12-02 15:53:00
Wind direction
70°
Wind speed
04 kts
Lowest cloud amount
n/a
Temperature
1.7°C
Dew point
-5°C
Humidity
61%
Weather condition
n/a

Description

Cortez Municipal Airport is a city owned, public use airport located 6 km southwest of the central business district of Cortez, a city in Montezuma County. It is also known as Montezuma County Airport.

Climatology

Semi-arid Steppe climate (Köppen climate classification BSk) - Little precipitation, hot summers and cold winters, sometimes with large changes in temperature in a 24 hour period.

Runways

Designator Length Width Surface Rops
3/21 2196 30 ASP Yes/Yes
Airport map: 
Aerial View: 

SKYbrary Partners:

Safety knowledge contributed by: